createdAt,value
2017-11-13T00:00:19.354Z,74.90
2017-11-13T00:02:45.572Z,74.90
2017-11-13T00:05:13.403Z,75.30
2017-11-13T00:07:39.589Z,75.20
2017-11-13T00:10:05.785Z,74.80
2017-11-13T00:12:32.050Z,74.70
2017-11-13T00:14:58.250Z,75.20
2017-11-13T00:17:24.426Z,74.80
2017-11-13T00:19:50.629Z,74.90
2017-11-13T00:22:16.798Z,75.00
2017-11-13T00:24:42.977Z,75.10
2017-11-13T00:27:10.143Z,75.80
2017-11-13T00:29:36.338Z,76.10
2017-11-13T00:32:02.579Z,76.30
2017-11-13T00:34:29.642Z,76.60
2017-11-13T00:36:55.833Z,76.80
2017-11-13T00:39:22.051Z,76.70
2017-11-13T00:41:49.094Z,76.30
2017-11-13T00:44:15.258Z,74.30
2017-11-13T00:46:41.422Z,74.30
2017-11-13T00:49:07.650Z,75.00
2017-11-13T00:51:33.982Z,75.60
2017-11-13T00:54:00.160Z,75.80
2017-11-13T00:56:26.352Z,73.80
2017-11-13T00:58:52.542Z,74.20
2017-11-13T01:01:18.762Z,74.30
2017-11-13T01:03:45.708Z,74.90
2017-11-13T01:06:11.886Z,74.80
2017-11-13T01:08:38.066Z,75.10
2017-11-13T01:11:04.255Z,75.60
2017-11-13T01:13:30.459Z,74.90
2017-11-13T01:15:57.373Z,75.30
2017-11-13T01:18:24.373Z,75.20
2017-11-13T01:20:51.302Z,76.20
2017-11-13T01:23:18.213Z,76.10
2017-11-13T01:25:44.447Z,75.80
2017-11-13T01:28:10.616Z,76.20
2017-11-13T01:30:36.811Z,76.80
2017-11-13T01:33:03.011Z,76.80
2017-11-13T01:35:29.197Z,76.70
2017-11-13T01:37:55.406Z,76.80
2017-11-13T01:40:22.482Z,76.70
2017-11-13T01:42:48.701Z,75.40
2017-11-13T01:45:14.903Z,75.40
2017-11-13T01:47:41.127Z,74.30
2017-11-13T01:50:07.315Z,74.00
2017-11-13T01:52:33.570Z,74.70
2017-11-13T01:54:59.793Z,75.00
2017-11-13T01:57:25.990Z,74.50
2017-11-13T01:59:52.186Z,74.60
2017-11-13T02:02:18.382Z,75.50
2017-11-13T02:04:44.574Z,76.00
2017-11-13T02:07:10.742Z,76.00
2017-11-13T02:09:36.914Z,73.60
2017-11-13T02:12:03.095Z,73.80
2017-11-13T02:14:29.283Z,74.00
2017-11-13T02:16:55.478Z,74.70
2017-11-13T02:19:22.437Z,76.30
2017-11-13T02:21:48.610Z,75.50
2017-11-13T02:24:16.429Z,76.50
2017-11-13T02:26:42.599Z,76.50
2017-11-13T02:29:08.845Z,76.60
2017-11-13T02:31:35.807Z,76.00
2017-11-13T02:34:02.746Z,75.90
2017-11-13T02:36:28.945Z,75.80
2017-11-13T02:38:55.125Z,76.20
2017-11-13T02:41:22.032Z,74.50
2017-11-13T02:43:48.222Z,74.40
2017-11-13T02:46:14.438Z,74.70
2017-11-13T02:48:40.634Z,75.90
2017-11-13T02:51:06.834Z,73.70
2017-11-13T02:53:33.112Z,73.70
2017-11-13T02:55:59.305Z,74.20
2017-11-13T02:58:25.568Z,74.00
2017-11-13T03:00:51.817Z,74.10
2017-11-13T03:03:17.970Z,73.80
2017-11-13T03:05:44.939Z,74.40
2017-11-13T03:08:11.151Z,74.40
2017-11-13T03:10:42.794Z,74.00
2017-11-13T03:13:08.995Z,73.70
2017-11-13T03:15:35.191Z,73.10
2017-11-13T03:18:02.114Z,73.50
2017-11-13T03:20:28.315Z,73.40
2017-11-13T03:22:54.543Z,72.70
2017-11-13T03:25:20.786Z,72.30
2017-11-13T03:27:46.989Z,72.20
2017-11-13T03:30:13.227Z,73.00
2017-11-13T03:32:39.438Z,72.40
2017-11-13T03:35:06.365Z,73.50
2017-11-13T03:37:32.572Z,73.50
2017-11-13T03:39:58.751Z,73.20
2017-11-13T03:42:25.679Z,73.60
2017-11-13T03:44:51.863Z,73.40
2017-11-13T03:47:18.030Z,73.10
2017-11-13T03:49:44.214Z,73.00
2017-11-13T03:52:11.166Z,73.20
2017-11-13T03:54:39.777Z,73.30
2017-11-13T03:57:05.963Z,73.20
2017-11-13T03:59:32.179Z,73.40
2017-11-13T04:01:58.354Z,74.30
2017-11-13T04:04:25.286Z,73.50
2017-11-13T04:06:51.478Z,73.40
2017-11-13T04:09:17.658Z,73.60
2017-11-13T04:11:44.586Z,73.70
2017-11-13T04:14:10.795Z,73.70
2017-11-13T04:16:36.978Z,73.60
2017-11-13T04:19:03.910Z,73.30
2017-11-13T04:21:30.086Z,73.30
2017-11-13T04:23:56.986Z,73.80
2017-11-13T04:26:23.182Z,73.80
2017-11-13T04:28:49.377Z,73.00
2017-11-13T04:31:16.307Z,73.20
2017-11-13T04:33:42.490Z,73.10
2017-11-13T04:36:08.688Z,73.50
2017-11-13T04:38:34.869Z,73.40
2017-11-13T04:41:01.031Z,73.20
2017-11-13T04:43:27.265Z,74.10
2017-11-13T04:45:53.422Z,75.20
2017-11-13T04:48:19.587Z,74.60
2017-11-13T04:50:45.774Z,74.10
2017-11-13T04:53:11.976Z,73.70
2017-11-13T04:55:38.513Z,74.00
2017-11-13T04:58:04.689Z,74.20
2017-11-13T05:00:31.637Z,73.90
2017-11-13T05:02:57.798Z,73.90
2017-11-13T05:05:23.960Z,73.70
2017-11-13T05:07:50.148Z,73.70
2017-11-13T05:10:16.331Z,73.30
2017-11-13T05:12:43.411Z,72.60
2017-11-13T05:15:09.602Z,72.60
2017-11-13T05:17:36.526Z,73.20
2017-11-13T05:20:02.831Z,73.20
2017-11-13T05:22:29.013Z,73.00
2017-11-13T05:24:55.234Z,72.80
2017-11-13T05:27:23.060Z,72.90
2017-11-13T05:29:49.246Z,72.90
2017-11-13T05:32:15.460Z,72.70
2017-11-13T05:34:41.634Z,72.80
2017-11-13T05:37:07.814Z,72.70
2017-11-13T05:39:33.980Z,72.80
2017-11-13T05:42:00.913Z,73.10
2017-11-13T05:44:27.847Z,72.70
2017-11-13T05:46:54.022Z,72.70
2017-11-13T05:49:20.935Z,72.60
2017-11-13T05:51:47.125Z,72.50
2017-11-13T05:54:13.309Z,72.50
2017-11-13T05:56:39.609Z,72.50
2017-11-13T05:59:05.790Z,72.40
2017-11-13T06:01:31.976Z,72.50
2017-11-13T06:03:58.186Z,72.60
2017-11-13T06:06:24.373Z,72.70
2017-11-13T06:08:50.534Z,72.40
2017-11-13T06:11:17.444Z,72.80
2017-11-13T06:13:43.615Z,72.10
2017-11-13T06:16:10.537Z,72.00
2017-11-13T06:18:36.746Z,72.00
2017-11-13T06:21:02.923Z,72.10
2017-11-13T06:23:29.821Z,74.60
2017-11-13T06:25:56.007Z,74.10
2017-11-13T06:28:22.914Z,75.20
2017-11-13T06:30:49.118Z,75.10
2017-11-13T06:33:15.303Z,72.00
2017-11-13T06:35:41.470Z,72.00
2017-11-13T06:38:08.366Z,71.10
2017-11-13T06:40:34.546Z,71.00
2017-11-13T06:43:01.446Z,71.30
2017-11-13T06:45:27.598Z,71.20
2017-11-13T06:47:53.802Z,71.00
2017-11-13T06:50:19.981Z,70.70
2017-11-13T06:52:46.154Z,70.70
2017-11-13T06:55:12.358Z,72.40
2017-11-13T06:57:38.726Z,73.20
2017-11-13T07:00:04.910Z,74.20
2017-11-13T07:02:31.114Z,72.30
2017-11-13T07:04:57.302Z,70.40
2017-11-13T07:07:24.218Z,69.90
2017-11-13T07:09:50.462Z,69.80
2017-11-13T07:12:16.645Z,70.70
2017-11-13T07:14:42.836Z,70.00
2017-11-13T07:17:09.043Z,70.30
2017-11-13T07:19:35.226Z,70.40
2017-11-13T07:22:02.164Z,70.60
2017-11-13T07:24:29.104Z,71.20
2017-11-13T07:26:55.271Z,71.00
2017-11-13T07:29:21.471Z,70.30
2017-11-13T07:31:47.661Z,70.40
2017-11-13T07:34:13.854Z,70.70
2017-11-13T07:36:40.774Z,70.80
2017-11-13T07:39:06.978Z,70.70
2017-11-13T07:41:33.146Z,71.10
2017-11-13T07:43:59.327Z,70.50
2017-11-13T07:46:25.552Z,70.20
2017-11-13T07:48:51.710Z,70.00
2017-11-13T07:51:17.898Z,70.20
2017-11-13T07:53:44.090Z,70.50
2017-11-13T07:56:10.261Z,71.20
2017-11-13T07:58:36.555Z,70.80
2017-11-13T08:01:02.750Z,70.60
2017-11-13T08:03:29.663Z,70.70
2017-11-13T08:05:55.862Z,70.60
2017-11-13T08:08:22.108Z,71.00
2017-11-13T08:10:48.290Z,70.30
2017-11-13T08:13:15.208Z,70.90
2017-11-13T08:15:41.440Z,70.20
2017-11-13T08:18:07.663Z,70.10
2017-11-13T08:20:33.847Z,70.20
2017-11-13T08:23:00.815Z,70.50
2017-11-13T08:25:27.039Z,70.30
2017-11-13T08:27:53.966Z,70.90
2017-11-13T08:30:20.265Z,70.90
2017-11-13T08:32:46.451Z,70.00
2017-11-13T08:35:13.382Z,70.60
2017-11-13T08:37:40.341Z,69.90
2017-11-13T08:40:06.522Z,69.80
2017-11-13T08:42:32.693Z,70.30
2017-11-13T08:44:58.894Z,69.90
2017-11-13T08:47:25.061Z,70.30
2017-11-13T08:49:51.234Z,69.90
2017-11-13T08:52:18.174Z,70.40
2017-11-13T08:54:45.118Z,70.50
2017-11-13T08:57:12.072Z,70.20
2017-11-13T08:59:39.066Z,70.00
2017-11-13T09:02:05.275Z,70.00
2017-11-13T09:04:31.524Z,70.40
2017-11-13T09:06:57.750Z,70.00
2017-11-13T09:09:23.948Z,69.70
2017-11-13T09:11:50.153Z,70.70
2017-11-13T09:14:16.356Z,70.20
2017-11-13T09:16:42.585Z,69.90
2017-11-13T09:19:08.774Z,69.80
2017-11-13T09:21:35.749Z,69.20
2017-11-13T09:24:02.674Z,69.00
2017-11-13T09:26:28.886Z,68.90
2017-11-13T09:28:55.102Z,69.00
2017-11-13T09:31:21.330Z,68.70
2017-11-13T09:33:47.510Z,68.20
2017-11-13T09:36:13.710Z,68.10
2017-11-13T09:38:39.899Z,68.50
2017-11-13T09:41:06.112Z,68.80
2017-11-13T09:43:32.305Z,67.40
2017-11-13T09:45:58.478Z,67.10
2017-11-13T09:48:24.673Z,67.20
2017-11-13T09:50:50.860Z,67.00
2017-11-13T09:53:17.049Z,67.00
2017-11-13T09:55:43.234Z,66.70
2017-11-13T09:58:10.191Z,67.20
2017-11-13T10:00:36.438Z,67.20
2017-11-13T10:03:03.351Z,67.20
2017-11-13T10:05:29.565Z,67.10
2017-11-13T10:07:55.738Z,66.70
2017-11-13T10:10:21.931Z,67.20
2017-11-13T10:12:48.115Z,67.50
2017-11-13T10:15:15.044Z,66.50
2017-11-13T10:17:41.249Z,66.40
2017-11-13T10:20:07.462Z,66.20
2017-11-13T10:22:33.649Z,66.40
2017-11-13T10:25:00.610Z,66.50
2017-11-13T10:27:27.578Z,66.90
2017-11-13T10:29:54.527Z,66.90
2017-11-13T10:32:20.712Z,66.90
2017-11-13T10:34:46.910Z,66.20
2017-11-13T10:37:13.113Z,66.20
2017-11-13T10:39:40.058Z,67.00
2017-11-13T10:42:07.041Z,68.30
2017-11-13T10:44:33.249Z,68.30
2017-11-13T10:47:00.194Z,66.60
2017-11-13T10:49:26.426Z,66.50
2017-11-13T10:51:53.350Z,66.30
2017-11-13T10:54:19.548Z,66.30
2017-11-13T10:56:45.814Z,66.40
2017-11-13T10:59:12.003Z,66.00
2017-11-13T11:01:39.107Z,65.50
2017-11-13T11:04:05.350Z,65.40
2017-11-13T11:06:31.546Z,65.60
2017-11-13T11:08:57.733Z,65.40
2017-11-13T11:11:23.952Z,65.80
2017-11-13T11:13:50.151Z,66.10
2017-11-13T11:16:17.197Z,65.70
2017-11-13T11:18:45.224Z,65.70
2017-11-13T11:21:16.382Z,66.10
2017-11-13T11:23:45.977Z,67.10
2017-11-13T11:26:19.863Z,65.40
2017-11-13T11:28:59.878Z,65.30
2017-11-13T11:31:32.798Z,65.20
2017-11-13T11:33:59.011Z,65.10
2017-11-13T11:36:35.161Z,64.90
2017-11-13T11:39:01.367Z,65.10
2017-11-13T11:41:28.432Z,65.20
2017-11-13T11:44:09.611Z,65.10
2017-11-13T11:46:35.823Z,64.40
2017-11-13T11:49:03.645Z,64.70
2017-11-13T11:51:29.854Z,64.10
2017-11-13T11:53:56.771Z,63.80
2017-11-13T11:56:23.862Z,63.80
2017-11-13T11:58:50.077Z,64.00
2017-11-13T12:01:16.246Z,64.40
2017-11-13T12:03:42.668Z,64.60
2017-11-13T12:06:08.892Z,64.40
2017-11-13T12:08:35.815Z,64.70
2017-11-13T12:11:01.997Z,64.60
2017-11-13T12:13:28.174Z,64.90
2017-11-13T12:15:54.399Z,64.90
2017-11-13T12:18:20.578Z,64.60
2017-11-13T12:20:47.503Z,64.70
2017-11-13T12:23:13.682Z,64.60
2017-11-13T12:25:39.852Z,64.70
2017-11-13T12:28:06.046Z,64.00
2017-11-13T12:30:32.232Z,64.30
2017-11-13T12:32:58.403Z,63.70
2017-11-13T12:35:25.354Z,62.40
2017-11-13T12:37:51.538Z,62.40
2017-11-13T12:40:17.698Z,62.80
2017-11-13T12:42:43.875Z,62.90
2017-11-13T12:45:10.046Z,62.90
2017-11-13T12:47:36.228Z,62.60
2017-11-13T12:50:02.426Z,63.00
2017-11-13T12:52:28.630Z,62.60
2017-11-13T12:54:54.800Z,61.70
2017-11-13T12:57:21.750Z,59.30
2017-11-13T12:59:48.677Z,59.60
2017-11-13T13:02:14.853Z,59.40
2017-11-13T13:04:41.134Z,59.70
2017-11-13T13:07:07.310Z,60.40
2017-11-13T13:09:34.294Z,58.30
2017-11-13T13:12:00.483Z,58.30
2017-11-13T13:14:26.650Z,58.30
2017-11-13T13:16:52.837Z,57.40
2017-11-13T13:19:19.052Z,57.50
2017-11-13T13:21:45.237Z,57.60
2017-11-13T13:24:11.437Z,59.30
2017-11-13T13:26:37.650Z,58.50
2017-11-13T13:29:03.854Z,57.90
2017-11-13T13:31:30.038Z,57.90
2017-11-13T13:33:56.263Z,58.50
2017-11-13T13:36:22.459Z,58.00
2017-11-13T13:38:48.641Z,58.40
2017-11-13T13:41:14.842Z,59.30
2017-11-13T13:43:41.010Z,60.20
2017-11-13T13:46:07.219Z,59.30
2017-11-13T13:48:33.399Z,59.30
2017-11-13T13:51:00.327Z,59.50
2017-11-13T13:53:26.509Z,59.40
2017-11-13T13:55:52.705Z,59.40
2017-11-13T13:58:18.897Z,59.00
2017-11-13T14:00:45.074Z,59.60
2017-11-13T14:03:12.038Z,60.20
2017-11-13T14:05:39.039Z,60.00
2017-11-13T14:08:05.233Z,59.90
2017-11-13T14:10:32.183Z,59.10
2017-11-13T14:12:59.090Z,58.80
2017-11-13T14:15:25.270Z,58.40
2017-11-13T14:17:52.234Z,58.30
2017-11-13T14:20:18.413Z,58.30
2017-11-13T14:22:44.607Z,58.40
2017-11-13T14:25:10.827Z,58.20
2017-11-13T14:27:37.025Z,59.00
2017-11-13T14:30:03.225Z,58.60
2017-11-13T14:32:29.432Z,58.70
2017-11-13T14:34:55.630Z,58.90
2017-11-13T14:37:21.830Z,58.00
2017-11-13T14:39:48.044Z,57.70
2017-11-13T14:42:14.217Z,57.90
2017-11-13T14:44:40.409Z,57.60
2017-11-13T14:47:06.596Z,57.30
2017-11-13T14:49:32.780Z,57.10
2017-11-13T14:51:58.946Z,57.10
2017-11-13T14:54:25.138Z,57.60
2017-11-13T14:56:51.352Z,58.00
2017-11-13T14:59:18.310Z,57.50
2017-11-13T15:01:45.247Z,57.80
2017-11-13T15:04:11.453Z,57.80
2017-11-13T15:06:37.709Z,57.10
2017-11-13T15:09:03.874Z,57.80
2017-11-13T15:11:30.070Z,57.60
2017-11-13T15:13:56.253Z,57.40
2017-11-13T15:16:22.462Z,58.20
2017-11-13T15:18:48.650Z,57.90
2017-11-13T15:21:14.829Z,58.30
2017-11-13T15:23:41.790Z,59.20
2017-11-13T15:26:07.966Z,59.10
2017-11-13T15:28:34.145Z,59.60
2017-11-13T15:31:01.092Z,60.70
2017-11-13T15:33:28.002Z,61.00
2017-11-13T15:35:54.182Z,60.90
2017-11-13T15:38:20.406Z,61.30
2017-11-13T15:40:47.306Z,62.70
2017-11-13T15:43:13.473Z,62.60
2017-11-13T15:45:39.646Z,62.90
2017-11-13T15:48:05.813Z,63.40
2017-11-13T15:50:31.982Z,63.50
2017-11-13T15:52:58.914Z,64.20
2017-11-13T15:55:25.089Z,64.10
2017-11-13T15:57:51.270Z,63.60
2017-11-13T16:00:17.479Z,63.60
2017-11-13T16:02:43.676Z,63.50
2017-11-13T16:05:09.878Z,63.60
2017-11-13T16:07:36.420Z,62.80
2017-11-13T16:10:02.574Z,62.50
2017-11-13T16:12:28.746Z,61.40
2017-11-13T16:14:54.933Z,59.30
2017-11-13T16:17:21.180Z,59.90
2017-11-13T16:19:48.118Z,58.10
2017-11-13T16:22:14.290Z,58.00
2017-11-13T16:24:40.509Z,57.80
2017-11-13T16:27:06.697Z,57.70
2017-11-13T16:29:32.896Z,58.00
2017-11-13T16:31:59.094Z,57.90
2017-11-13T16:34:26.070Z,57.70
2017-11-13T16:36:52.272Z,57.70
2017-11-13T16:39:18.450Z,57.90
2017-11-13T16:41:44.642Z,57.80
2017-11-13T16:44:10.851Z,57.90
2017-11-13T16:46:37.050Z,58.20
2017-11-13T16:49:03.221Z,58.00
2017-11-13T16:51:29.425Z,57.90
2017-11-13T16:53:55.622Z,58.20
2017-11-13T16:56:22.605Z,59.20
2017-11-13T16:58:48.793Z,59.20
2017-11-13T17:01:14.975Z,59.90
2017-11-13T17:03:41.154Z,59.70
2017-11-13T17:06:07.392Z,58.70
2017-11-13T17:08:34.598Z,58.90
2017-11-13T17:11:00.840Z,58.80
2017-11-13T17:13:27.049Z,60.30
2017-11-13T17:15:53.978Z,59.10
2017-11-13T17:18:20.955Z,60.20
2017-11-13T17:20:47.172Z,59.90
2017-11-13T17:23:14.088Z,59.50
2017-11-13T17:25:41.046Z,60.20
2017-11-13T17:28:07.270Z,59.60
2017-11-13T17:30:33.481Z,60.30
2017-11-13T17:32:59.690Z,59.50
2017-11-13T17:35:25.902Z,59.70
2017-11-13T17:37:52.082Z,60.60
2017-11-13T17:40:18.287Z,61.40
2017-11-13T17:42:44.495Z,60.60
2017-11-13T17:45:11.434Z,60.90
2017-11-13T17:47:37.638Z,60.80
2017-11-13T17:50:03.855Z,62.20
2017-11-13T17:52:30.085Z,64.60
2017-11-13T17:54:56.310Z,65.40
2017-11-13T17:57:22.510Z,65.80
2017-11-13T17:59:48.705Z,65.90
2017-11-13T18:02:14.910Z,65.50
2017-11-13T18:04:41.116Z,65.70
2017-11-13T18:07:08.067Z,66.80
2017-11-13T18:09:35.218Z,65.20
2017-11-13T18:12:02.157Z,66.50
2017-11-13T18:14:28.334Z,66.40
2017-11-13T18:16:55.267Z,68.00
2017-11-13T18:19:22.240Z,67.60
2017-11-13T18:21:48.433Z,67.60
2017-11-13T18:24:15.383Z,63.80
2017-11-13T18:26:42.350Z,61.80
2017-11-13T18:29:09.310Z,61.50
2017-11-13T18:31:36.226Z,61.40
2017-11-13T18:34:02.457Z,61.30
2017-11-13T18:36:28.686Z,61.60
2017-11-13T18:38:54.909Z,61.50
2017-11-13T18:41:21.158Z,61.90
2017-11-13T18:43:47.330Z,61.80
2017-11-13T18:46:13.494Z,61.80
2017-11-13T18:48:39.714Z,62.20
2017-11-13T18:51:05.916Z,62.40
2017-11-13T18:53:32.115Z,62.50
2017-11-13T18:55:58.459Z,62.80
2017-11-13T18:58:25.430Z,63.00
2017-11-13T19:00:51.631Z,63.30
2017-11-13T19:03:17.845Z,63.30
2017-11-13T19:05:44.025Z,63.70
2017-11-13T19:08:10.987Z,63.80
2017-11-13T19:10:37.456Z,63.80
2017-11-13T19:13:04.370Z,64.30
2017-11-13T19:15:30.561Z,63.90
2017-11-13T19:17:56.810Z,64.50
2017-11-13T19:20:22.991Z,66.40
2017-11-13T19:22:49.266Z,66.20
2017-11-13T19:25:15.516Z,67.90
2017-11-13T19:27:41.758Z,64.90
2017-11-13T19:30:07.970Z,65.50
2017-11-13T19:32:34.184Z,67.20
2017-11-13T19:35:00.463Z,68.00
2017-11-13T19:37:26.666Z,68.30
2017-11-13T19:39:52.884Z,68.40
2017-11-13T19:42:19.822Z,68.10
2017-11-13T19:44:46.771Z,67.80
2017-11-13T19:47:13.715Z,68.10
2017-11-13T19:49:39.894Z,68.10
2017-11-13T19:52:06.143Z,68.00
2017-11-13T19:54:32.414Z,67.90
2017-11-13T19:56:59.350Z,67.80
2017-11-13T19:59:25.522Z,68.30
2017-11-13T20:01:52.449Z,68.70
2017-11-13T20:04:18.645Z,68.60
2017-11-13T20:06:44.824Z,68.40
2017-11-13T20:09:11.802Z,68.20
2017-11-13T20:11:38.055Z,68.00
2017-11-13T20:14:04.247Z,67.90
2017-11-13T20:16:31.321Z,68.60
2017-11-13T20:18:57.565Z,68.10
2017-11-13T20:21:23.846Z,68.30
2017-11-13T20:23:50.842Z,68.00
2017-11-13T20:26:17.022Z,67.90
2017-11-13T20:28:43.233Z,67.80
2017-11-13T20:31:09.448Z,67.70
2017-11-13T20:33:36.375Z,68.10
2017-11-13T20:36:03.400Z,68.10
2017-11-13T20:38:29.613Z,68.00
2017-11-13T20:40:55.820Z,67.90
2017-11-13T20:43:22.043Z,67.70
2017-11-13T20:45:48.327Z,67.50
2017-11-13T20:48:14.518Z,67.80
2017-11-13T20:50:41.433Z,68.10
2017-11-13T20:53:07.647Z,68.10
2017-11-13T20:55:33.890Z,68.50
2017-11-13T20:58:00.070Z,69.00
2017-11-13T21:00:26.279Z,69.10
2017-11-13T21:02:52.438Z,68.90
2017-11-13T21:05:18.610Z,69.00
2017-11-13T21:07:44.829Z,68.80
2017-11-13T21:10:11.017Z,68.80
2017-11-13T21:12:38.195Z,68.50
2017-11-13T21:15:04.413Z,68.50
2017-11-13T21:17:30.594Z,68.10
2017-11-13T21:19:56.764Z,68.30
2017-11-13T21:22:22.969Z,67.90
2017-11-13T21:24:49.188Z,68.20
2017-11-13T21:27:15.405Z,68.40
2017-11-13T21:29:41.609Z,68.50
2017-11-13T21:32:08.549Z,68.50
2017-11-13T21:34:35.502Z,69.70
2017-11-13T21:37:01.728Z,69.60
2017-11-13T21:39:28.711Z,69.30
2017-11-13T21:41:54.931Z,69.50
2017-11-13T21:44:21.922Z,69.30
2017-11-13T21:46:48.122Z,68.70
2017-11-13T21:49:15.059Z,68.20
2017-11-13T21:51:42.007Z,68.50
2017-11-13T21:54:08.193Z,67.80
2017-11-13T21:56:34.390Z,68.30
2017-11-13T21:59:00.569Z,68.90
2017-11-13T22:01:26.762Z,68.70
2017-11-13T22:03:52.955Z,68.40
2017-11-13T22:06:19.143Z,69.20
2017-11-13T22:08:45.333Z,69.80
2017-11-13T22:11:11.497Z,70.00
2017-11-13T22:13:38.500Z,69.20
2017-11-13T22:16:04.717Z,69.20
2017-11-13T22:18:30.919Z,69.80
2017-11-13T22:20:57.849Z,71.40
2017-11-13T22:23:24.018Z,71.30
2017-11-13T22:25:51.097Z,70.90
2017-11-13T22:28:17.308Z,70.70
2017-11-13T22:30:43.474Z,70.20
2017-11-13T22:33:09.648Z,70.10
2017-11-13T22:35:36.573Z,69.60
2017-11-13T22:38:02.774Z,69.50
2017-11-13T22:40:28.953Z,70.10
2017-11-13T22:42:55.129Z,69.10
2017-11-13T22:45:21.306Z,68.80
2017-11-13T22:47:47.519Z,69.80
2017-11-13T22:50:13.734Z,69.80
2017-11-13T22:52:39.898Z,68.70
2017-11-13T22:55:06.103Z,69.20
2017-11-13T22:57:32.310Z,69.90
2017-11-13T22:59:59.202Z,68.60
2017-11-13T23:02:25.397Z,68.50
2017-11-13T23:04:52.329Z,68.70
2017-11-13T23:07:18.492Z,68.70
2017-11-13T23:09:44.674Z,68.80
2017-11-13T23:12:10.853Z,68.70
2017-11-13T23:14:37.826Z,70.00
2017-11-13T23:17:03.998Z,69.90
2017-11-13T23:19:30.211Z,70.00
2017-11-13T23:21:56.421Z,70.20
2017-11-13T23:24:22.578Z,70.00
2017-11-13T23:26:48.790Z,70.60
2017-11-13T23:29:14.954Z,70.80
2017-11-13T23:31:41.142Z,71.20
2017-11-13T23:34:07.327Z,70.70
2017-11-13T23:36:33.501Z,70.80
2017-11-13T23:38:59.698Z,70.60
2017-11-13T23:41:25.892Z,71.30
2017-11-13T23:43:52.075Z,71.90
2017-11-13T23:46:19.023Z,71.90
2017-11-13T23:48:45.948Z,71.50
2017-11-13T23:51:12.157Z,72.10
2017-11-13T23:53:38.344Z,71.20
2017-11-13T23:56:05.286Z,70.30
2017-11-13T23:58:31.459Z,70.10
